Phillips, Wisconsin
Current Conditions -  °F | °C
As of 9:15 PM on Monday 26 Jan 2015 (Local Time) from KPBH Reporting Station
Overcast Overcast  
Wind Chill: -7°   Ceiling: 900
Heat Index: -7°   Visibility: 10mi
Dew Point: -8°   Wind: 0mph
Humidity: 92%   Direction: NA
Pressure: 29.87"   Gusts: NA
Location:  45.69°N, 90.41°W
Report Text: KPBH 270315Z AUTO 00000KT 10SM OVC009 M07/M08 A2987 RMK AO2 T10671078
Loading
Personal Weather Stations






























Interactive Weather Map New forecast layout! Learn more

10-Day Weather Forecast

Advertisements
Track Severe Weather on mobile